createdAt,value
2024-01-01T00:02:47.008Z,4.64
2024-01-01T00:05:55.873Z,4.72
2024-01-01T00:09:05.069Z,4.76
2024-01-01T00:12:20.018Z,4.72
2024-01-01T00:15:28.596Z,4.74
2024-01-01T00:18:37.107Z,4.77
2024-01-01T00:21:52.016Z,4.78
2024-01-01T00:25:09.691Z,4.74
2024-01-01T00:28:11.792Z,4.73
2024-01-01T00:31:27.018Z,4.73
2024-01-01T00:34:42.053Z,4.78
2024-01-01T00:37:51.011Z,4.82
2024-01-01T00:41:06.033Z,4.85
2024-01-01T00:44:21.029Z,4.89
2024-01-01T00:47:23.045Z,4.89
2024-01-01T00:50:38.014Z,4.87
2024-01-01T00:53:46.013Z,4.85
2024-01-01T00:57:02.022Z,4.85
2024-01-01T01:00:17.584Z,4.85
2024-01-01T01:03:32.040Z,4.84
2024-01-01T01:06:42.281Z,4.86
2024-01-01T01:09:57.037Z,4.91
2024-01-01T01:13:12.014Z,4.97
2024-01-01T01:16:21.147Z,5.02
2024-01-01T01:19:36.026Z,5.07
2024-01-01T01:22:51.034Z,5.14
2024-01-01T01:26:06.036Z,5.16
2024-01-01T01:29:21.034Z,5.19
2024-01-01T01:32:36.157Z,5.21
2024-01-01T01:35:45.025Z,5.27
2024-01-01T01:38:53.896Z,5.33
2024-01-01T01:42:03.026Z,5.34
2024-01-01T01:45:11.657Z,5.42
2024-01-01T01:48:29.090Z,5.49
2024-01-01T01:51:38.007Z,5.57
2024-01-01T01:54:47.951Z,5.58
2024-01-01T01:58:03.322Z,5.59
2024-01-01T02:01:14.090Z,5.59
2024-01-01T02:04:29.024Z,5.56
2024-01-01T02:07:41.102Z,5.55
2024-01-01T02:10:49.869Z,5.53
2024-01-01T02:14:19.035Z,5.52
2024-01-01T02:17:28.041Z,5.54
2024-01-01T02:20:43.063Z,5.55
2024-01-01T02:23:58.093Z,5.58
2024-01-01T02:27:12.988Z,5.56
2024-01-01T02:30:14.858Z,5.56
2024-01-01T02:33:30.022Z,5.57
2024-01-01T02:36:47.044Z,5.59
2024-01-01T02:39:54.373Z,5.60
2024-01-01T02:43:16.032Z,5.62
2024-01-01T02:46:24.977Z,5.62
2024-01-01T02:49:34.592Z,5.61
2024-01-01T02:52:43.031Z,5.62
2024-01-01T02:55:51.639Z,5.60
2024-01-01T02:59:07.050Z,5.58
2024-01-01T03:02:22.030Z,5.58
2024-01-01T03:05:37.205Z,5.56
2024-01-01T03:08:39.438Z,5.57
2024-01-01T03:11:54.025Z,5.57
2024-01-01T03:15:03.253Z,5.54
2024-01-01T03:18:12.063Z,5.53
2024-01-01T03:21:20.953Z,5.50
2024-01-01T03:24:29.988Z,5.55
2024-01-01T03:27:45.000Z,5.56
2024-01-01T03:30:54.042Z,5.58
2024-01-01T03:34:03.107Z,5.51
2024-01-01T03:37:18.006Z,5.61
2024-01-01T03:40:20.107Z,5.61
2024-01-01T03:43:35.044Z,5.65
2024-01-01T03:46:43.516Z,5.69
2024-01-01T03:49:58.044Z,5.73
2024-01-01T03:53:13.180Z,5.79
2024-01-01T03:56:21.943Z,5.80
2024-01-01T03:59:44.017Z,5.76
2024-01-01T04:02:45.870Z,5.72
2024-01-01T04:06:01.059Z,5.67
2024-01-01T04:09:10.015Z,5.64
2024-01-01T04:12:18.526Z,5.61
2024-01-01T04:15:33.007Z,5.62
2024-01-01T04:18:42.114Z,5.57
2024-01-01T04:21:50.605Z,5.51
2024-01-01T04:24:58.999Z,5.51
2024-01-01T04:28:13.996Z,5.50
2024-01-01T04:31:22.871Z,5.49
2024-01-01T04:34:38.065Z,5.49
2024-01-01T04:37:53.035Z,5.51
2024-01-01T04:40:54.961Z,5.52
2024-01-01T04:44:10.094Z,5.56
2024-01-01T04:47:25.041Z,5.58
2024-01-01T04:50:33.884Z,5.62
2024-01-01T04:53:49.010Z,5.62
2024-01-01T04:56:58.009Z,5.63
2024-01-01T05:00:13.894Z,5.65
2024-01-01T05:03:23.001Z,5.70
2024-01-01T05:06:31.508Z,5.71
2024-01-01T05:09:45.972Z,5.72
2024-01-01T05:13:01.020Z,5.73
2024-01-01T05:16:03.211Z,5.69
2024-01-01T05:19:18.076Z,5.69
2024-01-01T05:22:32.998Z,5.65
2024-01-01T05:25:41.624Z,5.65
2024-01-01T05:28:55.988Z,5.63
2024-01-01T05:32:12.150Z,5.61
2024-01-01T05:35:21.082Z,5.53
2024-01-01T05:38:35.999Z,5.49
2024-01-01T05:41:51.014Z,5.48
2024-01-01T05:44:59.831Z,5.42
2024-01-01T05:48:22.156Z,5.35
2024-01-01T05:51:29.359Z,5.33
2024-01-01T05:54:44.002Z,5.27
2024-01-01T05:58:06.194Z,5.21
2024-01-01T06:01:21.032Z,5.16
2024-01-01T06:04:36.065Z,5.14
2024-01-01T06:07:38.285Z,5.09
2024-01-01T06:10:53.097Z,5.04
2024-01-01T06:14:08.016Z,5.00
2024-01-01T06:17:20.124Z,4.99
2024-01-01T06:20:28.834Z,4.94
2024-01-01T06:23:37.002Z,4.88
2024-01-01T06:26:52.082Z,4.77
2024-01-01T06:30:00.846Z,4.82
2024-01-01T06:33:16.074Z,4.84
2024-01-01T06:36:25.017Z,4.79
2024-01-01T06:39:34.150Z,4.82
2024-01-01T06:42:49.052Z,4.82
2024-01-01T06:46:03.986Z,4.84
2024-01-01T06:49:12.946Z,4.83
2024-01-01T06:52:28.024Z,4.86
2024-01-01T06:55:43.022Z,4.85
2024-01-01T06:58:58.091Z,4.86
2024-01-01T07:02:06.955Z,4.87
2024-01-01T07:05:22.039Z,4.85
2024-01-01T07:08:24.118Z,4.84
2024-01-01T07:11:38.993Z,4.82
2024-01-01T07:14:55.182Z,4.85
2024-01-01T07:18:04.816Z,4.86
2024-01-01T07:21:20.041Z,4.84
2024-01-01T07:24:28.642Z,4.84
2024-01-01T07:27:37.021Z,4.81
2024-01-01T07:30:45.973Z,4.80
2024-01-01T07:34:01.095Z,4.80
2024-01-01T07:37:10.014Z,4.81
2024-01-01T07:40:19.114Z,4.81
2024-01-01T07:43:28.016Z,4.81
2024-01-01T07:46:36.855Z,4.81
2024-01-01T07:49:46.382Z,4.77
2024-01-01T07:52:54.831Z,4.80
2024-01-01T07:56:03.070Z,4.78
2024-01-01T07:59:25.007Z,4.75
2024-01-01T08:02:40.022Z,4.72
2024-01-01T08:05:56.170Z,4.73
2024-01-01T08:09:04.899Z,4.66
2024-01-01T08:12:14.007Z,4.69
2024-01-01T08:15:29.037Z,4.66
2024-01-01T08:18:44.076Z,4.66
2024-01-01T08:21:53.016Z,4.66
2024-01-01T08:25:01.793Z,4.63
2024-01-01T08:28:10.979Z,4.64
2024-01-01T08:31:27.005Z,4.66
2024-01-01T08:34:35.573Z,4.65
2024-01-01T08:37:44.144Z,4.66
2024-01-01T08:40:59.102Z,4.69
2024-01-01T08:44:08.499Z,4.71
2024-01-01T08:47:23.109Z,4.73
2024-01-01T08:50:38.003Z,4.77
2024-01-01T08:53:47.002Z,4.82
2024-01-01T08:57:02.029Z,4.85
2024-01-01T09:00:19.242Z,4.88
2024-01-01T09:03:37.056Z,4.92
2024-01-01T09:06:41.442Z,5.00
2024-01-01T09:09:56.059Z,5.06
2024-01-01T09:12:57.923Z,5.06
2024-01-01T09:16:14.023Z,5.12
2024-01-01T09:19:22.961Z,5.16
2024-01-01T09:22:30.982Z,5.21
2024-01-01T09:25:41.114Z,5.24
2024-01-01T09:28:50.020Z,5.38
2024-01-01T09:32:05.135Z,5.71
2024-01-01T09:35:20.068Z,5.97
2024-01-01T09:38:28.625Z,6.17
2024-01-01T09:41:37.023Z,6.15
2024-01-01T09:44:48.986Z,6.15
2024-01-01T09:48:04.456Z,6.08
2024-01-01T09:51:21.043Z,6.05
2024-01-01T09:54:22.954Z,6.04
2024-01-01T09:57:38.011Z,6.01
2024-01-01T10:00:53.303Z,6.06
2024-01-01T10:04:12.033Z,6.09
2024-01-01T10:07:36.015Z,6.05
2024-01-01T10:10:52.114Z,6.24
2024-01-01T10:14:01.038Z,6.28
2024-01-01T10:17:13.999Z,6.34
2024-01-01T10:20:29.007Z,6.42
2024-01-01T10:23:31.308Z,6.51
2024-01-01T10:26:51.019Z,6.60
2024-01-01T10:30:06.059Z,6.63
2024-01-01T10:33:16.076Z,6.63
2024-01-01T10:36:31.005Z,6.60
2024-01-01T10:39:45.990Z,6.76
2024-01-01T10:42:48.118Z,6.80
2024-01-01T10:46:11.047Z,6.91
2024-01-01T10:49:28.021Z,7.11
2024-01-01T10:53:06.351Z,7.28
2024-01-01T10:56:32.660Z,7.28
2024-01-01T10:59:57.004Z,7.49
2024-01-01T11:03:06.942Z,7.58
2024-01-01T11:06:33.099Z,7.63
2024-01-01T11:09:56.012Z,7.71
2024-01-01T11:13:05.147Z,7.82
2024-01-01T11:16:20.008Z,7.79
2024-01-01T11:19:42.066Z,7.80
2024-01-01T11:22:50.885Z,7.79
2024-01-01T11:26:06.100Z,7.77
2024-01-01T11:29:34.018Z,7.83
2024-01-01T11:32:42.923Z,7.87
2024-01-01T11:35:58.044Z,7.98
2024-01-01T11:39:07.151Z,8.06
2024-01-01T11:42:16.028Z,8.12
2024-01-01T11:45:24.642Z,8.07
2024-01-01T11:48:39.245Z,8.14
2024-01-01T11:52:05.039Z,8.05
2024-01-01T11:55:13.890Z,7.95
2024-01-01T11:58:22.988Z,7.83
2024-01-01T12:01:48.057Z,7.82
2024-01-01T12:04:57.155Z,7.75
2024-01-01T12:08:06.033Z,7.76
2024-01-01T12:11:25.039Z,7.85
2024-01-01T12:14:33.829Z,7.85
2024-01-01T12:17:54.259Z,7.88
2024-01-01T12:21:11.332Z,7.87
2024-01-01T12:24:28.083Z,7.87
2024-01-01T12:27:31.409Z,7.90
2024-01-01T12:30:46.058Z,7.96
2024-01-01T12:33:58.183Z,7.96
2024-01-01T12:37:06.847Z,7.98
2024-01-01T12:40:23.041Z,7.97
2024-01-01T12:43:25.287Z,8.02
2024-01-01T12:46:40.029Z,7.99
2024-01-01T12:49:49.061Z,7.97
2024-01-01T12:53:04.239Z,7.96
2024-01-01T12:56:20.126Z,7.94
2024-01-01T12:59:35.088Z,7.99
2024-01-01T13:02:50.024Z,8.01
2024-01-01T13:06:05.105Z,8.02
2024-01-01T13:09:14.003Z,8.01
2024-01-01T13:12:29.006Z,7.98
2024-01-01T13:15:31.138Z,7.97
2024-01-01T13:18:46.098Z,7.99
2024-01-01T13:21:55.000Z,7.99
2024-01-01T13:25:03.979Z,7.98
2024-01-01T13:28:20.009Z,7.97
2024-01-01T13:31:28.884Z,7.97
2024-01-01T13:34:37.004Z,7.96
2024-01-01T13:37:52.056Z,7.91
2024-01-01T13:41:00.625Z,7.89
2024-01-01T13:44:10.004Z,7.92
2024-01-01T13:47:25.138Z,7.91
2024-01-01T13:50:40.028Z,7.94
2024-01-01T13:53:48.944Z,7.98
2024-01-01T13:57:04.009Z,7.97
2024-01-01T14:00:26.069Z,7.95
2024-01-01T14:03:41.029Z,7.97
2024-01-01T14:06:50.041Z,7.95
2024-01-01T14:10:06.017Z,7.95
2024-01-01T14:13:21.015Z,7.88
2024-01-01T14:16:23.141Z,7.82
2024-01-01T14:19:38.022Z,7.74
2024-01-01T14:22:46.046Z,7.71
2024-01-01T14:26:01.081Z,7.63
2024-01-01T14:29:10.057Z,7.58
2024-01-01T14:32:19.239Z,7.53
2024-01-01T14:35:34.225Z,7.49
2024-01-01T14:38:37.002Z,7.48
2024-01-01T14:41:52.009Z,7.47
2024-01-01T14:45:07.034Z,7.44
2024-01-01T14:48:09.315Z,7.38
2024-01-01T14:51:24.051Z,7.34
2024-01-01T14:54:32.004Z,7.29
2024-01-01T14:57:40.894Z,7.24
2024-01-01T15:01:03.073Z,7.16
2024-01-01T15:04:05.163Z,7.06
2024-01-01T15:07:20.050Z,7.06
2024-01-01T15:10:35.046Z,7.15
2024-01-01T15:13:43.611Z,7.18
2024-01-01T15:16:59.029Z,7.20
2024-01-01T15:20:08.646Z,7.15
2024-01-01T15:23:24.065Z,7.16
2024-01-01T15:26:32.998Z,7.09
2024-01-01T15:29:48.023Z,7.04
2024-01-01T15:32:57.034Z,6.97
2024-01-01T15:36:06.471Z,6.92
2024-01-01T15:39:20.989Z,6.85
2024-01-01T15:42:23.147Z,6.87
2024-01-01T15:45:38.041Z,6.83
2024-01-01T15:48:53.202Z,6.76
2024-01-01T15:52:01.659Z,6.64
2024-01-01T15:55:18.041Z,6.56
2024-01-01T15:58:26.025Z,6.54
2024-01-01T16:01:41.340Z,6.46
2024-01-01T16:04:50.131Z,6.36
2024-01-01T16:07:58.875Z,6.30
2024-01-01T16:11:14.020Z,6.26
2024-01-01T16:14:23.092Z,6.21
2024-01-01T16:17:38.147Z,6.22
2024-01-01T16:20:40.658Z,6.22
2024-01-01T16:23:57.078Z,6.18
2024-01-01T16:27:06.280Z,6.15
2024-01-01T16:30:22.084Z,6.20
2024-01-01T16:33:30.937Z,6.22
2024-01-01T16:36:47.792Z,6.15
2024-01-01T16:39:56.001Z,6.08
2024-01-01T16:43:11.009Z,5.99
2024-01-01T16:46:26.023Z,5.90
2024-01-01T16:49:41.042Z,5.83
2024-01-01T16:52:43.705Z,5.74
2024-01-01T16:55:59.095Z,5.61
2024-01-01T16:59:01.373Z,5.46
2024-01-01T17:02:23.046Z,5.31
2024-01-01T17:05:38.104Z,5.17
2024-01-01T17:08:46.030Z,4.99
2024-01-01T17:12:01.016Z,4.84
2024-01-01T17:15:10.264Z,4.69
2024-01-01T17:18:25.120Z,4.61
2024-01-01T17:21:41.078Z,4.56
2024-01-01T17:24:49.627Z,4.49
2024-01-01T17:28:05.078Z,4.44
2024-01-01T17:31:06.971Z,4.44
2024-01-01T17:34:22.093Z,4.32
2024-01-01T17:37:24.264Z,4.19
2024-01-01T17:40:39.026Z,4.13
2024-01-01T17:43:47.044Z,4.22
2024-01-01T17:47:02.120Z,4.19
2024-01-01T17:50:11.059Z,4.24
2024-01-01T17:53:27.688Z,4.26
2024-01-01T17:56:47.088Z,4.10
2024-01-01T17:59:56.039Z,4.06
2024-01-01T18:03:11.044Z,3.98
2024-01-01T18:06:13.201Z,3.95
2024-01-01T18:09:28.232Z,3.94
2024-01-01T18:12:43.051Z,4.00
2024-01-01T18:15:51.004Z,4.10
2024-01-01T18:18:59.992Z,4.23
2024-01-01T18:22:16.048Z,4.36
2024-01-01T18:25:31.043Z,4.45
2024-01-01T18:28:32.946Z,4.48
2024-01-01T18:31:48.090Z,4.47
2024-01-01T18:34:50.974Z,4.55
2024-01-01T18:38:06.053Z,4.60
2024-01-01T18:41:09.419Z,4.69
2024-01-01T18:44:24.144Z,4.75
2024-01-01T18:47:39.210Z,4.83
2024-01-01T18:50:48.009Z,4.84
2024-01-01T18:54:03.041Z,4.85
2024-01-01T18:57:11.941Z,4.83
2024-01-01T19:00:34.061Z,4.75
2024-01-01T19:03:50.095Z,4.81
2024-01-01T19:06:59.133Z,4.76
2024-01-01T19:10:15.038Z,4.76
2024-01-01T19:13:24.496Z,4.77
2024-01-01T19:16:40.032Z,4.76
2024-01-01T19:19:55.287Z,4.75
2024-01-01T19:23:04.369Z,4.75
2024-01-01T19:26:23.095Z,4.73
2024-01-01T19:29:25.310Z,4.72
2024-01-01T19:32:40.152Z,4.73
2024-01-01T19:35:55.183Z,4.73
2024-01-01T19:38:57.721Z,4.72
2024-01-01T19:42:14.002Z,4.73
2024-01-01T19:45:16.725Z,4.77
2024-01-01T19:48:36.146Z,4.80
2024-01-01T19:51:48.023Z,4.84
2024-01-01T19:55:02.987Z,4.87
2024-01-01T19:58:22.069Z,4.89
2024-01-01T20:01:53.002Z,4.94
2024-01-01T20:05:09.074Z,4.97
2024-01-01T20:08:24.507Z,4.98
2024-01-01T20:11:45.032Z,4.98
2024-01-01T20:14:47.761Z,4.93
2024-01-01T20:18:04.116Z,4.89
2024-01-01T20:21:23.300Z,4.85
2024-01-01T20:24:32.008Z,4.81
2024-01-01T20:27:41.158Z,4.75
2024-01-01T20:30:57.040Z,4.68
2024-01-01T20:34:06.350Z,4.64
2024-01-01T20:37:15.664Z,4.55
2024-01-01T20:40:25.057Z,4.51
2024-01-01T20:43:34.239Z,4.42
2024-01-01T20:46:51.140Z,4.36
2024-01-01T20:50:00.011Z,4.25
2024-01-01T20:53:08.935Z,4.15
2024-01-01T20:56:18.149Z,4.06
2024-01-01T20:59:33.105Z,3.94
2024-01-01T21:02:48.049Z,3.81
2024-01-01T21:05:50.479Z,3.74
2024-01-01T21:09:05.010Z,3.63
2024-01-01T21:12:07.475Z,3.61
2024-01-01T21:15:22.016Z,3.60
2024-01-01T21:18:30.451Z,3.54
2024-01-01T21:21:45.057Z,3.53
2024-01-01T21:24:53.040Z,3.49
2024-01-01T21:28:01.935Z,3.46
2024-01-01T21:31:11.058Z,3.43
2024-01-01T21:34:19.940Z,3.31
2024-01-01T21:37:29.001Z,3.29
2024-01-01T21:40:37.849Z,3.29
2024-01-01T21:43:53.036Z,3.27
2024-01-01T21:47:09.064Z,3.25
2024-01-01T21:50:11.448Z,3.21
2024-01-01T21:53:26.087Z,3.17
2024-01-01T21:56:28.017Z,3.09
2024-01-01T21:59:43.039Z,3.02
2024-01-01T22:02:58.015Z,3.01
2024-01-01T22:06:06.211Z,2.93
2024-01-01T22:09:21.022Z,2.90
2024-01-01T22:12:29.037Z,2.90
2024-01-01T22:15:44.005Z,2.80
2024-01-01T22:18:52.165Z,2.79
2024-01-01T22:22:00.700Z,2.90
2024-01-01T22:25:09.998Z,2.94
2024-01-01T22:28:18.848Z,2.97
2024-01-01T22:31:28.029Z,2.91
2024-01-01T22:34:36.521Z,2.83
2024-01-01T22:37:45.017Z,2.82
2024-01-01T22:40:53.654Z,2.75
2024-01-01T22:44:09.057Z,2.70
2024-01-01T22:47:17.619Z,2.73
2024-01-01T22:50:26.049Z,2.80
2024-01-01T22:53:34.940Z,2.88
2024-01-01T22:56:44.039Z,2.97
2024-01-01T23:00:05.972Z,3.01
2024-01-01T23:03:21.041Z,3.03
2024-01-01T23:06:29.548Z,2.98
2024-01-01T23:09:43.997Z,2.99
2024-01-01T23:12:53.672Z,3.03
2024-01-01T23:16:09.988Z,3.00
2024-01-01T23:19:12.181Z,2.92
2024-01-01T23:22:27.009Z,2.91
2024-01-01T23:25:50.070Z,2.91
2024-01-01T23:29:01.621Z,2.89
2024-01-01T23:32:16.100Z,2.87
2024-01-01T23:35:18.557Z,2.86
2024-01-01T23:38:34.064Z,2.85
2024-01-01T23:41:43.378Z,2.84
2024-01-01T23:44:58.031Z,2.86
2024-01-01T23:48:00.173Z,2.81
2024-01-01T23:51:15.011Z,2.82
2024-01-01T23:54:30.015Z,2.81
2024-01-01T23:57:45.016Z,2.75
